createdAt,value
2017-12-05T00:01:06.386Z,0
2017-12-05T00:02:28.094Z,0
2017-12-05T00:03:50.221Z,0
2017-12-05T00:05:11.963Z,0
2017-12-05T00:06:33.923Z,0
2017-12-05T00:07:56.054Z,0
2017-12-05T00:09:17.843Z,0
2017-12-05T00:10:39.541Z,0
2017-12-05T00:12:01.367Z,0
2017-12-05T00:13:23.332Z,0
2017-12-05T00:14:45.302Z,0
2017-12-05T00:16:07.089Z,0
2017-12-05T00:17:28.837Z,0
2017-12-05T00:18:50.637Z,0
2017-12-05T00:20:12.136Z,0
2017-12-05T00:21:34.086Z,0
2017-12-05T00:22:56.177Z,0
2017-12-05T00:24:18.258Z,0
2017-12-05T00:25:40.248Z,0
2017-12-05T00:27:01.994Z,0
2017-12-05T00:28:23.965Z,0
2017-12-05T00:29:45.826Z,0
2017-12-05T00:31:07.276Z,0
2017-12-05T00:32:28.994Z,0
2017-12-05T00:33:50.728Z,0
2017-12-05T00:35:12.947Z,0
2017-12-05T00:36:35.206Z,0
2017-12-05T00:37:56.912Z,0
2017-12-05T00:39:18.878Z,0
2017-12-05T00:40:40.862Z,0
2017-12-05T00:42:02.347Z,0
2017-12-05T00:43:24.591Z,0
2017-12-05T00:44:46.559Z,0
2017-12-05T00:46:08.236Z,0
2017-12-05T00:47:29.386Z,0
2017-12-05T00:48:51.096Z,0
2017-12-05T00:50:12.311Z,0
2017-12-05T00:51:34.409Z,0
2017-12-05T00:52:56.759Z,0
2017-12-05T00:54:18.480Z,0
2017-12-05T00:55:40.708Z,0
2017-12-05T00:57:02.939Z,0
2017-12-05T00:58:24.634Z,0
2017-12-05T00:59:46.325Z,0
2017-12-05T01:01:07.507Z,0
2017-12-05T01:02:29.747Z,0
2017-12-05T01:03:51.440Z,0
2017-12-05T01:05:13.450Z,0
2017-12-05T01:06:35.197Z,0
2017-12-05T01:07:56.716Z,0
2017-12-05T01:09:18.862Z,0
2017-12-05T01:10:40.398Z,0
2017-12-05T01:12:02.367Z,0
2017-12-05T01:13:24.164Z,0
2017-12-05T01:14:45.939Z,0
2017-12-05T01:16:07.916Z,0
2017-12-05T01:17:29.599Z,0
2017-12-05T01:18:51.666Z,0
2017-12-05T01:20:13.986Z,0
2017-12-05T01:21:35.688Z,0
2017-12-05T01:22:57.027Z,0
2017-12-05T01:24:18.407Z,0
2017-12-05T01:25:39.870Z,0
2017-12-05T01:27:01.318Z,0
2017-12-05T01:28:23.284Z,0
2017-12-05T01:29:44.723Z,0
2017-12-05T01:31:06.452Z,0
2017-12-05T01:32:28.437Z,0
2017-12-05T01:33:50.390Z,0
2017-12-05T01:35:12.656Z,0
2017-12-05T01:36:34.348Z,0
2017-12-05T01:37:56.335Z,0
2017-12-05T01:39:18.126Z,0
2017-12-05T01:40:40.446Z,0
2017-12-05T01:42:02.417Z,0
2017-12-05T01:43:24.189Z,0
2017-12-05T01:44:45.680Z,0
2017-12-05T01:46:07.206Z,0
2017-12-05T01:47:28.887Z,0
2017-12-05T01:48:50.838Z,0
2017-12-05T01:50:12.257Z,0
2017-12-05T01:51:33.755Z,0
2017-12-05T01:52:55.479Z,0
2017-12-05T01:54:17.427Z,0
2017-12-05T01:55:39.115Z,0
2017-12-05T01:57:00.894Z,0
2017-12-05T01:58:22.906Z,0
2017-12-05T01:59:44.604Z,0
2017-12-05T02:01:06.613Z,0
2017-12-05T02:02:28.877Z,0
2017-12-05T02:03:49.769Z,0
2017-12-05T02:05:11.545Z,0
2017-12-05T02:06:33.576Z,0
2017-12-05T02:07:55.274Z,0
2017-12-05T02:09:16.976Z,0
2017-12-05T02:10:38.410Z,0
2017-12-05T02:11:59.854Z,0
2017-12-05T02:13:21.406Z,0
2017-12-05T02:14:42.851Z,0
2017-12-05T02:16:05.001Z,0
2017-12-05T02:17:26.957Z,0
2017-12-05T02:18:49.337Z,0
2017-12-05T02:20:11.308Z,0
2017-12-05T02:21:33.569Z,0
2017-12-05T02:22:54.874Z,0
2017-12-05T02:24:16.568Z,0
2017-12-05T02:25:38.410Z,0
2017-12-05T02:27:00.115Z,0
2017-12-05T02:28:21.798Z,0
2017-12-05T02:29:43.749Z,0
2017-12-05T02:31:05.495Z,0
2017-12-05T02:32:27.255Z,0
2017-12-05T02:33:49.036Z,0
2017-12-05T02:35:10.472Z,0
2017-12-05T02:36:32.175Z,0
2017-12-05T02:37:54.135Z,0
2017-12-05T02:39:15.551Z,0
2017-12-05T02:40:37.063Z,0
2017-12-05T02:41:58.765Z,0
2017-12-05T02:43:21.077Z,0
2017-12-05T02:44:42.768Z,0
2017-12-05T02:46:04.338Z,0
2017-12-05T02:47:26.348Z,0
2017-12-05T02:48:48.312Z,0
2017-12-05T02:50:09.748Z,0
2017-12-05T02:51:31.797Z,0
2017-12-05T02:52:52.685Z,0
2017-12-05T02:54:14.466Z,0
2017-12-05T02:55:36.270Z,0
2017-12-05T02:56:57.833Z,0
2017-12-05T02:58:19.350Z,0
2017-12-05T02:59:41.677Z,0
2017-12-05T03:01:03.126Z,0
2017-12-05T03:02:25.488Z,0
2017-12-05T03:03:47.471Z,0
2017-12-05T03:05:09.166Z,0
2017-12-05T03:06:31.430Z,0
2017-12-05T03:07:53.378Z,0
2017-12-05T03:09:14.796Z,0
2017-12-05T03:10:36.365Z,0
2017-12-05T03:11:57.876Z,0
2017-12-05T03:13:19.044Z,0
2017-12-05T03:14:40.467Z,0
2017-12-05T03:16:02.456Z,0
2017-12-05T03:17:24.451Z,0
2017-12-05T03:18:46.734Z,0
2017-12-05T03:20:08.538Z,0
2017-12-05T03:21:30.526Z,0
2017-12-05T03:22:52.488Z,0
2017-12-05T03:24:14.435Z,0
2017-12-05T03:25:35.917Z,0
2017-12-05T03:26:57.889Z,0
2017-12-05T03:28:19.699Z,0
2017-12-05T03:29:41.376Z,0
2017-12-05T03:31:03.369Z,0
2017-12-05T03:32:24.547Z,0
2017-12-05T03:33:46.512Z,0
2017-12-05T03:35:08.275Z,0
2017-12-05T03:36:29.707Z,0
2017-12-05T03:37:51.709Z,0
2017-12-05T03:39:13.686Z,0
2017-12-05T03:40:35.113Z,0
2017-12-05T03:41:56.799Z,0
2017-12-05T03:43:18.759Z,0
2017-12-05T03:44:40.266Z,0
2017-12-05T03:46:02.326Z,0
2017-12-05T03:47:23.764Z,0
2017-12-05T03:48:45.184Z,0
2017-12-05T03:50:07.135Z,0
2017-12-05T03:51:28.886Z,0
2017-12-05T03:52:50.055Z,0
2017-12-05T03:54:12.427Z,0
2017-12-05T03:55:34.133Z,0
2017-12-05T03:56:55.282Z,0
2017-12-05T03:58:16.759Z,0
2017-12-05T03:59:38.449Z,0
2017-12-05T04:01:00.137Z,0
2017-12-05T04:02:22.106Z,0
2017-12-05T04:03:44.072Z,0
2017-12-05T04:05:05.503Z,0
2017-12-05T04:06:27.523Z,0
2017-12-05T04:07:49.497Z,0
2017-12-05T04:09:10.675Z,0
2017-12-05T04:10:32.111Z,0
2017-12-05T04:11:53.885Z,0
2017-12-05T04:13:15.873Z,0
2017-12-05T04:14:37.899Z,0
2017-12-05T04:15:59.323Z,0
2017-12-05T04:17:21.087Z,0
2017-12-05T04:18:43.299Z,0
2017-12-05T04:20:05.039Z,0
2017-12-05T04:21:27.047Z,0
2017-12-05T04:22:49.133Z,0
2017-12-05T04:24:10.364Z,0
2017-12-05T04:25:32.049Z,0
2017-12-05T04:26:54.072Z,0
2017-12-05T04:28:16.044Z,0
2017-12-05T04:29:38.029Z,0
2017-12-05T04:31:00.006Z,0
2017-12-05T04:32:22.006Z,0
2017-12-05T04:33:43.766Z,0
2017-12-05T04:35:06.016Z,0
2017-12-05T04:36:27.723Z,0
2017-12-05T04:37:49.154Z,0
2017-12-05T04:39:10.686Z,0
2017-12-05T04:40:32.387Z,0
2017-12-05T04:41:54.114Z,0
2017-12-05T04:43:15.538Z,0
2017-12-05T04:44:37.236Z,0
2017-12-05T04:45:58.950Z,0
2017-12-05T04:47:20.647Z,0
2017-12-05T04:48:42.677Z,0
2017-12-05T04:50:04.101Z,0
2017-12-05T04:51:26.100Z,0
2017-12-05T04:52:48.100Z,0
2017-12-05T04:54:09.510Z,0
2017-12-05T04:55:31.527Z,0
2017-12-05T04:56:52.975Z,0
2017-12-05T04:58:14.463Z,0
2017-12-05T04:59:35.899Z,0
2017-12-05T05:00:57.856Z,0
2017-12-05T05:02:19.909Z,0
2017-12-05T05:03:41.328Z,0
2017-12-05T05:05:02.779Z,0
2017-12-05T05:06:24.480Z,0
2017-12-05T05:07:46.705Z,0
2017-12-05T05:09:07.867Z,0
2017-12-05T05:10:30.096Z,0
2017-12-05T05:11:51.514Z,0
2017-12-05T05:13:13.044Z,0
2017-12-05T05:14:34.753Z,0
2017-12-05T05:15:56.721Z,0
2017-12-05T05:17:18.696Z,0
2017-12-05T05:18:40.128Z,0
2017-12-05T05:20:01.598Z,0
2017-12-05T05:21:23.278Z,0
2017-12-05T05:22:45.252Z,0
2017-12-05T05:24:07.222Z,0
2017-12-05T05:25:28.387Z,0
2017-12-05T05:26:50.604Z,0
2017-12-05T05:28:12.036Z,0
2017-12-05T05:29:33.734Z,0
2017-12-05T05:30:55.231Z,0
2017-12-05T05:32:16.389Z,0
2017-12-05T05:33:38.640Z,0
2017-12-05T05:35:00.906Z,0
2017-12-05T05:36:22.865Z,0
2017-12-05T05:37:44.588Z,0
2017-12-05T05:39:06.316Z,0
2017-12-05T05:40:28.338Z,0
2017-12-05T05:41:50.291Z,0
2017-12-05T05:43:11.989Z,0
2017-12-05T05:44:33.668Z,0
2017-12-05T05:45:55.263Z,0
2017-12-05T05:47:17.277Z,0
2017-12-05T05:48:39.604Z,0
2017-12-05T05:50:01.664Z,0
2017-12-05T05:51:24.047Z,0
2017-12-05T05:52:45.777Z,0
2017-12-05T05:54:07.844Z,0
2017-12-05T05:55:29.575Z,0
2017-12-05T05:56:51.934Z,0
2017-12-05T05:58:14.004Z,0
2017-12-05T05:59:35.264Z,0
2017-12-05T06:00:56.908Z,0
2017-12-05T06:02:18.718Z,0
2017-12-05T06:03:40.419Z,0
2017-12-05T06:05:02.134Z,0
2017-12-05T06:06:24.178Z,0
2017-12-05T06:07:46.157Z,0
2017-12-05T06:09:07.585Z,0
2017-12-05T06:10:29.293Z,0
2017-12-05T06:11:50.728Z,0
2017-12-05T06:13:12.718Z,0
2017-12-05T06:14:34.438Z,0
2017-12-05T06:15:56.482Z,0
2017-12-05T06:17:17.916Z,0
2017-12-05T06:18:39.618Z,0
2017-12-05T06:20:01.296Z,0
2017-12-05T06:21:22.974Z,0
2017-12-05T06:22:44.673Z,0
2017-12-05T06:24:06.634Z,0
2017-12-05T06:25:28.326Z,0
2017-12-05T06:26:50.086Z,0
2017-12-05T06:28:11.789Z,0
2017-12-05T06:29:33.209Z,0
2017-12-05T06:30:54.637Z,0
2017-12-05T06:32:16.399Z,0
2017-12-05T06:33:38.409Z,0
2017-12-05T06:35:00.458Z,0
2017-12-05T06:36:22.434Z,0
2017-12-05T06:37:44.447Z,0
2017-12-05T06:39:06.678Z,0
2017-12-05T06:40:28.663Z,0
2017-12-05T06:41:50.369Z,0
2017-12-05T06:43:11.995Z,0
2017-12-05T06:44:33.711Z,0
2017-12-05T06:45:55.767Z,0
2017-12-05T06:47:17.741Z,0
2017-12-05T06:48:39.544Z,0
2017-12-05T06:50:01.811Z,0
2017-12-05T06:51:24.050Z,0
2017-12-05T06:52:46.453Z,0
2017-12-05T06:54:08.592Z,0
2017-12-05T06:55:30.385Z,0
2017-12-05T06:56:52.372Z,0
2017-12-05T06:58:14.524Z,0
2017-12-05T06:59:36.768Z,0
2017-12-05T07:00:57.953Z,0
2017-12-05T07:02:20.180Z,0
2017-12-05T07:03:41.764Z,0
2017-12-05T07:05:02.941Z,0
2017-12-05T07:06:24.416Z,0
2017-12-05T07:07:46.688Z,0
2017-12-05T07:09:08.764Z,0
2017-12-05T07:10:30.480Z,0
2017-12-05T07:11:52.232Z,0
2017-12-05T07:13:14.284Z,0
2017-12-05T07:14:36.101Z,0
2017-12-05T07:15:58.074Z,0
2017-12-05T07:17:20.058Z,0
2017-12-05T07:18:41.834Z,0
2017-12-05T07:20:03.815Z,0
2017-12-05T07:21:25.505Z,0
2017-12-05T07:22:46.814Z,0
2017-12-05T07:24:08.017Z,0
2017-12-05T07:25:29.996Z,0
2017-12-05T07:26:51.719Z,5
2017-12-05T07:28:13.509Z,5
2017-12-05T07:29:34.755Z,5
2017-12-05T07:30:56.477Z,5
2017-12-05T07:32:18.436Z,5
2017-12-05T07:33:39.873Z,5
2017-12-05T07:35:01.566Z,5
2017-12-05T07:36:23.013Z,10
2017-12-05T07:37:45.027Z,10
2017-12-05T07:39:06.883Z,10
2017-12-05T07:40:29.168Z,15
2017-12-05T07:41:50.883Z,15
2017-12-05T07:43:12.591Z,15
2017-12-05T07:44:34.288Z,15
2017-12-05T07:45:56.250Z,15
2017-12-05T07:47:17.978Z,20
2017-12-05T07:48:39.943Z,25
2017-12-05T07:50:01.363Z,30
2017-12-05T07:51:23.153Z,30
2017-12-05T07:52:44.714Z,30
2017-12-05T07:54:05.876Z,30
2017-12-05T07:55:27.563Z,30
2017-12-05T07:56:49.564Z,30
2017-12-05T07:58:11.636Z,30
2017-12-05T07:59:33.736Z,35
2017-12-05T08:00:56.021Z,40
2017-12-05T08:02:17.975Z,40
2017-12-05T08:03:39.454Z,40
2017-12-05T08:05:01.758Z,40
2017-12-05T08:06:23.534Z,40
2017-12-05T08:07:45.225Z,40
2017-12-05T08:09:07.246Z,40
2017-12-05T08:10:28.947Z,45
2017-12-05T08:11:50.710Z,50
2017-12-05T08:13:12.410Z,55
2017-12-05T08:14:34.186Z,55
2017-12-05T08:15:55.890Z,50
2017-12-05T08:17:17.813Z,50
2017-12-05T08:18:39.267Z,50
2017-12-05T08:20:01.453Z,55
2017-12-05T08:21:22.371Z,55
2017-12-05T08:22:44.612Z,60
2017-12-05T08:24:06.356Z,55
2017-12-05T08:25:28.047Z,55
2017-12-05T08:26:49.726Z,55
2017-12-05T08:28:12.104Z,55
2017-12-05T08:29:33.828Z,55
2017-12-05T08:30:55.783Z,55
2017-12-05T08:32:17.230Z,55
2017-12-05T08:33:39.360Z,50
2017-12-05T08:35:01.363Z,50
2017-12-05T08:36:22.905Z,55
2017-12-05T08:37:44.397Z,50
2017-12-05T08:39:06.100Z,55
2017-12-05T08:40:27.532Z,55
2017-12-05T08:41:49.256Z,55
2017-12-05T08:43:11.209Z,50
2017-12-05T08:44:33.207Z,45
2017-12-05T08:45:55.173Z,55
2017-12-05T08:47:16.687Z,60
2017-12-05T08:48:38.486Z,60
2017-12-05T08:50:00.340Z,55
2017-12-05T08:51:22.558Z,65
2017-12-05T08:52:44.061Z,70
2017-12-05T08:54:05.818Z,60
2017-12-05T08:55:27.614Z,65
2017-12-05T08:56:49.685Z,65
2017-12-05T08:58:11.668Z,60
2017-12-05T08:59:33.914Z,55
2017-12-05T09:00:56.455Z,60
2017-12-05T09:02:18.144Z,60
2017-12-05T09:03:39.884Z,50
2017-12-05T09:05:01.859Z,55
2017-12-05T09:06:23.300Z,55
2017-12-05T09:07:45.026Z,60
2017-12-05T09:09:07.326Z,60
2017-12-05T09:10:29.666Z,60
2017-12-05T09:11:51.660Z,55
2017-12-05T09:13:13.996Z,50
2017-12-05T09:14:35.269Z,55
2017-12-05T09:15:57.406Z,55
2017-12-05T09:17:19.230Z,55
2017-12-05T09:18:40.747Z,40
2017-12-05T09:20:03.060Z,50
2017-12-05T09:21:24.538Z,55
2017-12-05T09:22:46.894Z,55
2017-12-05T09:24:08.350Z,55
2017-12-05T09:25:30.266Z,55
2017-12-05T09:26:51.975Z,50
2017-12-05T09:28:13.145Z,45
2017-12-05T09:29:35.497Z,55
2017-12-05T09:30:57.668Z,50
2017-12-05T09:32:19.369Z,60
2017-12-05T09:33:41.475Z,85
2017-12-05T09:35:03.205Z,65
2017-12-05T09:36:24.915Z,60
2017-12-05T09:37:47.276Z,60
2017-12-05T09:39:09.349Z,55
2017-12-05T09:40:31.420Z,55
2017-12-05T09:41:52.850Z,65
2017-12-05T09:43:15.277Z,70
2017-12-05T09:44:37.297Z,70
2017-12-05T09:45:59.083Z,65
2017-12-05T09:47:20.517Z,85
2017-12-05T09:48:42.487Z,100
2017-12-05T09:50:04.713Z,105
2017-12-05T09:51:26.685Z,105
2017-12-05T09:52:48.814Z,115
2017-12-05T09:54:10.817Z,110
2017-12-05T09:55:32.601Z,95
2017-12-05T09:56:54.298Z,90
2017-12-05T09:58:15.747Z,95
2017-12-05T09:59:38.069Z,100
2017-12-05T10:01:00.036Z,95
2017-12-05T10:02:22.060Z,95
2017-12-05T10:03:43.815Z,100
2017-12-05T10:05:05.839Z,105
2017-12-05T10:06:27.534Z,105
2017-12-05T10:07:49.293Z,100
2017-12-05T10:09:10.514Z,100
2017-12-05T10:10:32.744Z,90
2017-12-05T10:11:54.434Z,90
2017-12-05T10:13:15.586Z,85
2017-12-05T10:14:37.093Z,100
2017-12-05T10:15:58.524Z,90
2017-12-05T10:17:20.791Z,80
2017-12-05T10:18:42.777Z,85
2017-12-05T10:20:04.832Z,80
2017-12-05T10:21:26.552Z,85
2017-12-05T10:22:47.995Z,85
2017-12-05T10:24:09.808Z,75
2017-12-05T10:25:31.913Z,80
2017-12-05T10:26:53.627Z,75
2017-12-05T10:28:15.070Z,80
2017-12-05T10:29:37.057Z,80
2017-12-05T10:30:59.399Z,95
2017-12-05T10:32:21.733Z,85
2017-12-05T10:33:42.913Z,85
2017-12-05T10:35:04.980Z,95
2017-12-05T10:36:26.943Z,100
2017-12-05T10:37:48.644Z,100
2017-12-05T10:39:10.174Z,100
2017-12-05T10:40:32.146Z,100
2017-12-05T10:41:54.384Z,95
2017-12-05T10:43:16.436Z,95
2017-12-05T10:44:38.015Z,105
2017-12-05T10:46:00.114Z,100
2017-12-05T10:47:21.682Z,100
2017-12-05T10:48:43.483Z,100
2017-12-05T10:50:05.458Z,95
2017-12-05T10:51:27.385Z,95
2017-12-05T10:52:48.563Z,85
2017-12-05T10:54:10.535Z,90
2017-12-05T10:55:32.505Z,95
2017-12-05T10:56:54.218Z,105
2017-12-05T10:58:15.716Z,110
2017-12-05T10:59:37.475Z,100
2017-12-05T11:00:59.441Z,85
2017-12-05T11:02:21.743Z,60
2017-12-05T11:03:43.527Z,60
2017-12-05T11:05:05.685Z,65
2017-12-05T11:06:27.912Z,85
2017-12-05T11:07:50.180Z,80
2017-12-05T11:09:12.264Z,90
2017-12-05T11:10:33.751Z,60
2017-12-05T11:11:55.583Z,65
2017-12-05T11:13:17.006Z,85
2017-12-05T11:14:39.150Z,95
2017-12-05T11:16:00.584Z,75
2017-12-05T11:17:22.555Z,85
2017-12-05T11:18:44.538Z,100
2017-12-05T11:20:06.072Z,110
2017-12-05T11:21:28.060Z,125
2017-12-05T11:22:50.017Z,125
2017-12-05T11:24:12.099Z,125
2017-12-05T11:25:33.897Z,105
2017-12-05T11:26:55.596Z,90
2017-12-05T11:28:17.629Z,85
2017-12-05T11:29:39.071Z,90
2017-12-05T11:31:01.056Z,85
2017-12-05T11:32:23.035Z,90
2017-12-05T11:33:45.281Z,85
2017-12-05T11:35:06.736Z,85
2017-12-05T11:36:29.072Z,80
2017-12-05T11:37:50.777Z,90
2017-12-05T11:39:11.958Z,95
2017-12-05T11:40:33.944Z,105
2017-12-05T11:41:55.663Z,105
2017-12-05T11:43:17.656Z,100
2017-12-05T11:44:39.774Z,115
2017-12-05T11:46:01.557Z,125
2017-12-05T11:47:22.984Z,130
2017-12-05T11:48:44.393Z,135
2017-12-05T11:50:06.116Z,130
2017-12-05T11:51:28.383Z,130
2017-12-05T11:52:50.362Z,105
2017-12-05T11:54:12.362Z,115
2017-12-05T11:55:34.057Z,105
2017-12-05T11:56:55.515Z,95
2017-12-05T11:58:17.477Z,100
2017-12-05T11:59:39.453Z,100
2017-12-05T12:01:01.787Z,120
2017-12-05T12:02:23.656Z,115
2017-12-05T12:03:45.645Z,120
2017-12-05T12:05:07.632Z,135
2017-12-05T12:06:29.074Z,135
2017-12-05T12:07:50.513Z,120
2017-12-05T12:09:12.098Z,135
2017-12-05T12:10:34.074Z,120
2017-12-05T12:11:55.767Z,110
2017-12-05T12:13:17.474Z,80
2017-12-05T12:14:39.473Z,70
2017-12-05T12:16:01.295Z,60
2017-12-05T12:17:22.713Z,70
2017-12-05T12:18:44.693Z,80
2017-12-05T12:20:06.422Z,80
2017-12-05T12:21:28.440Z,85
2017-12-05T12:22:50.427Z,75
2017-12-05T12:24:12.122Z,70
2017-12-05T12:25:33.683Z,75
2017-12-05T12:26:55.255Z,60
2017-12-05T12:28:17.543Z,65
2017-12-05T12:29:38.728Z,80
2017-12-05T12:31:01.177Z,65
2017-12-05T12:32:23.138Z,50
2017-12-05T12:33:45.110Z,55
2017-12-05T12:35:07.406Z,40
2017-12-05T12:36:28.895Z,25
2017-12-05T12:37:50.668Z,25
2017-12-05T12:39:12.916Z,25
2017-12-05T12:40:34.904Z,25
2017-12-05T12:41:56.613Z,20
2017-12-05T12:43:18.608Z,20
2017-12-05T12:44:40.596Z,20
2017-12-05T12:46:02.854Z,30
2017-12-05T12:47:25.125Z,35
2017-12-05T12:48:46.595Z,40
2017-12-05T12:50:08.625Z,50
2017-12-05T12:51:30.320Z,50
2017-12-05T12:52:52.323Z,40
2017-12-05T12:54:14.455Z,40
2017-12-05T12:55:36.456Z,40
2017-12-05T12:56:58.823Z,45
2017-12-05T12:58:20.418Z,55
2017-12-05T12:59:41.855Z,60
2017-12-05T13:01:03.825Z,65
2017-12-05T13:02:25.544Z,70
2017-12-05T13:03:47.947Z,70
2017-12-05T13:05:09.377Z,70
2017-12-05T13:06:30.807Z,65
2017-12-05T13:07:52.624Z,65
2017-12-05T13:09:14.329Z,60
2017-12-05T13:10:35.995Z,55
2017-12-05T13:11:57.847Z,55
2017-12-05T13:13:19.383Z,50
2017-12-05T13:14:41.428Z,50
2017-12-05T13:16:03.115Z,50
2017-12-05T13:17:25.373Z,50
2017-12-05T13:18:47.369Z,60
2017-12-05T13:20:09.443Z,60
2017-12-05T13:21:30.876Z,65
2017-12-05T13:22:53.112Z,80
2017-12-05T13:24:14.563Z,85
2017-12-05T13:25:36.557Z,85
2017-12-05T13:26:58.075Z,75
2017-12-05T13:28:20.238Z,85
2017-12-05T13:29:41.953Z,95
2017-12-05T13:31:03.409Z,90
2017-12-05T13:32:24.578Z,80
2017-12-05T13:33:46.299Z,70
2017-12-05T13:35:08.244Z,65
2017-12-05T13:36:30.475Z,70
2017-12-05T13:37:52.732Z,65
2017-12-05T13:39:14.426Z,70
2017-12-05T13:40:36.411Z,75
2017-12-05T13:41:58.408Z,80
2017-12-05T13:43:20.385Z,80
2017-12-05T13:44:41.954Z,75
2017-12-05T13:46:03.494Z,75
2017-12-05T13:47:25.006Z,70
2017-12-05T13:48:47.262Z,65
2017-12-05T13:50:09.241Z,55
2017-12-05T13:51:31.557Z,55
2017-12-05T13:52:53.281Z,55
2017-12-05T13:54:15.249Z,60
2017-12-05T13:55:36.671Z,65
2017-12-05T13:56:58.652Z,65
2017-12-05T13:58:19.905Z,60
2017-12-05T13:59:41.338Z,60
2017-12-05T14:01:03.128Z,55
2017-12-05T14:02:24.951Z,55
2017-12-05T14:03:46.953Z,55
2017-12-05T14:05:09.306Z,50
2017-12-05T14:06:31.013Z,50
2017-12-05T14:07:52.979Z,50
2017-12-05T14:09:14.993Z,45
2017-12-05T14:10:36.715Z,40
2017-12-05T14:11:58.156Z,35
2017-12-05T14:13:20.516Z,40
2017-12-05T14:14:42.412Z,35
2017-12-05T14:16:04.208Z,35
2017-12-05T14:17:25.901Z,30
2017-12-05T14:18:48.314Z,30
2017-12-05T14:20:10.314Z,30
2017-12-05T14:21:32.318Z,30
2017-12-05T14:22:54.126Z,25
2017-12-05T14:24:16.356Z,20
2017-12-05T14:25:38.806Z,20
2017-12-05T14:27:00.303Z,20
2017-12-05T14:28:22.321Z,20
2017-12-05T14:29:44.644Z,15
2017-12-05T14:31:06.618Z,15
2017-12-05T14:32:28.886Z,15
2017-12-05T14:33:50.871Z,15
2017-12-05T14:35:12.921Z,15
2017-12-05T14:36:34.615Z,15
2017-12-05T14:37:56.584Z,15
2017-12-05T14:39:18.322Z,15
2017-12-05T14:40:40.426Z,10
2017-12-05T14:42:02.234Z,15
2017-12-05T14:43:24.506Z,15
2017-12-05T14:44:46.325Z,15
2017-12-05T14:46:07.764Z,15
2017-12-05T14:47:29.564Z,15
2017-12-05T14:48:51.293Z,15
2017-12-05T14:50:13.386Z,10
2017-12-05T14:51:35.448Z,10
2017-12-05T14:52:56.604Z,10
2017-12-05T14:54:18.911Z,5
2017-12-05T14:55:40.677Z,5
2017-12-05T14:57:02.655Z,5
2017-12-05T14:58:24.409Z,5
2017-12-05T14:59:46.416Z,5
2017-12-05T15:01:08.702Z,5
2017-12-05T15:02:30.797Z,5
2017-12-05T15:03:53.028Z,5
2017-12-05T15:05:14.745Z,5
2017-12-05T15:06:36.604Z,0
2017-12-05T15:07:58.333Z,0
2017-12-05T15:09:19.856Z,0
2017-12-05T15:10:42.106Z,0
2017-12-05T15:12:04.096Z,0
2017-12-05T15:13:26.579Z,0
2017-12-05T15:14:48.544Z,0
2017-12-05T15:16:10.262Z,0
2017-12-05T15:17:32.016Z,0
2017-12-05T15:18:54.359Z,0
2017-12-05T15:20:16.082Z,0
2017-12-05T15:21:38.313Z,0
2017-12-05T15:23:00.297Z,0
2017-12-05T15:24:22.974Z,0
2017-12-05T15:25:45.201Z,0
2017-12-05T15:27:07.493Z,0
2017-12-05T15:28:29.766Z,0
2017-12-05T15:29:51.935Z,0
2017-12-05T15:31:14.354Z,0
2017-12-05T15:32:36.361Z,0
2017-12-05T15:33:58.603Z,0
2017-12-05T15:35:20.599Z,0
2017-12-05T15:36:42.881Z,0
2017-12-05T15:38:04.922Z,0
2017-12-05T15:39:27.179Z,0
2017-12-05T15:40:49.011Z,0
2017-12-05T15:42:11.253Z,0
2017-12-05T15:43:32.958Z,0
2017-12-05T15:44:54.967Z,0
2017-12-05T15:46:16.962Z,0
2017-12-05T15:47:38.990Z,0
2017-12-05T15:49:00.710Z,0
2017-12-05T15:50:22.984Z,0
2017-12-05T15:51:44.978Z,0
2017-12-05T15:53:06.964Z,0
2017-12-05T15:54:28.696Z,0
2017-12-05T15:55:50.432Z,0
2017-12-05T15:57:12.871Z,0
2017-12-05T15:58:34.892Z,0
2017-12-05T15:59:56.605Z,0
2017-12-05T16:01:18.859Z,0
2017-12-05T16:02:41.082Z,0
2017-12-05T16:04:02.525Z,0
2017-12-05T16:05:24.647Z,0
2017-12-05T16:06:46.717Z,0
2017-12-05T16:08:08.424Z,0
2017-12-05T16:09:30.153Z,0
2017-12-05T16:10:51.599Z,0
2017-12-05T16:12:14.049Z,0
2017-12-05T16:13:35.761Z,0
2017-12-05T16:14:58.016Z,0
2017-12-05T16:16:19.995Z,0
2017-12-05T16:17:41.994Z,0
2017-12-05T16:19:04.340Z,0
2017-12-05T16:20:26.043Z,0
2017-12-05T16:21:48.115Z,0
2017-12-05T16:23:10.128Z,0
2017-12-05T16:24:31.574Z,0
2017-12-05T16:25:53.567Z,0
2017-12-05T16:27:15.284Z,0
2017-12-05T16:28:37.379Z,0
2017-12-05T16:29:59.151Z,0
2017-12-05T16:31:21.326Z,0
2017-12-05T16:32:43.096Z,0
2017-12-05T16:34:04.832Z,0
2017-12-05T16:35:26.790Z,0
2017-12-05T16:36:48.771Z,0
2017-12-05T16:38:11.061Z,0
2017-12-05T16:39:33.060Z,0
2017-12-05T16:40:54.872Z,0
2017-12-05T16:42:17.137Z,0
2017-12-05T16:43:39.285Z,0
2017-12-05T16:45:01.293Z,0
2017-12-05T16:46:23.637Z,0
2017-12-05T16:47:45.689Z,0
2017-12-05T16:49:07.983Z,0
2017-12-05T16:50:30.250Z,0
2017-12-05T16:51:52.297Z,0
2017-12-05T16:53:14.290Z,0
2017-12-05T16:54:36.286Z,0
2017-12-05T16:55:58.562Z,0
2017-12-05T16:57:20.553Z,0
2017-12-05T16:58:42.588Z,0
2017-12-05T17:00:04.804Z,0
2017-12-05T17:01:26.845Z,0
2017-12-05T17:02:49.073Z,0
2017-12-05T17:04:11.084Z,0
2017-12-05T17:05:32.534Z,0
2017-12-05T17:06:54.836Z,0
2017-12-05T17:08:16.623Z,0
2017-12-05T17:09:38.348Z,0
2017-12-05T17:11:00.495Z,0
2017-12-05T17:12:22.314Z,0
2017-12-05T17:13:44.235Z,0
2017-12-05T17:15:06.346Z,0
2017-12-05T17:16:28.849Z,0
2017-12-05T17:17:50.044Z,0
2017-12-05T17:19:12.681Z,0
2017-12-05T17:20:34.944Z,0
2017-12-05T17:21:57.266Z,0
2017-12-05T17:23:19.545Z,0
2017-12-05T17:24:41.591Z,0
2017-12-05T17:26:03.745Z,0
2017-12-05T17:27:26.079Z,0
2017-12-05T17:28:48.128Z,0
2017-12-05T17:30:09.901Z,0
2017-12-05T17:31:32.005Z,0
2017-12-05T17:32:54.004Z,0
2017-12-05T17:34:16.259Z,0
2017-12-05T17:35:38.631Z,0
2017-12-05T17:37:00.647Z,0
2017-12-05T17:38:22.936Z,0
2017-12-05T17:39:44.357Z,0
2017-12-05T17:41:06.203Z,0
2017-12-05T17:42:28.514Z,0
2017-12-05T17:43:50.507Z,0
2017-12-05T17:45:12.728Z,0
2017-12-05T17:46:34.750Z,0
2017-12-05T17:47:56.804Z,0
2017-12-05T17:49:18.572Z,0
2017-12-05T17:50:40.912Z,0
2017-12-05T17:52:02.646Z,0
2017-12-05T17:53:24.669Z,0
2017-12-05T17:54:46.481Z,0
2017-12-05T17:56:08.235Z,0
2017-12-05T17:57:30.495Z,0
2017-12-05T17:58:52.215Z,0
2017-12-05T18:00:14.469Z,0
2017-12-05T18:01:36.496Z,0
2017-12-05T18:02:58.244Z,0
2017-12-05T18:04:20.367Z,0
2017-12-05T18:05:42.387Z,0
2017-12-05T18:07:04.407Z,0
2017-12-05T18:08:26.434Z,0
2017-12-05T18:09:48.280Z,0
2017-12-05T18:11:10.246Z,0
2017-12-05T18:12:32.535Z,0
2017-12-05T18:13:54.811Z,0
2017-12-05T18:15:16.603Z,0
2017-12-05T18:16:38.604Z,0
2017-12-05T18:18:00.695Z,0
2017-12-05T18:19:22.948Z,0
2017-12-05T18:20:45.052Z,0
2017-12-05T18:22:07.088Z,0
2017-12-05T18:23:29.126Z,0
2017-12-05T18:24:51.173Z,0
2017-12-05T18:26:12.907Z,0
2017-12-05T18:27:34.712Z,0
2017-12-05T18:28:56.705Z,0
2017-12-05T18:30:18.817Z,0
2017-12-05T18:31:41.139Z,0
2017-12-05T18:33:03.147Z,0
2017-12-05T18:34:25.169Z,0
2017-12-05T18:35:47.176Z,0
2017-12-05T18:37:09.218Z,0
2017-12-05T18:38:31.228Z,0
2017-12-05T18:39:53.521Z,0
2017-12-05T18:41:15.816Z,0
2017-12-05T18:42:38.136Z,0
2017-12-05T18:44:00.159Z,0
2017-12-05T18:45:22.173Z,0
2017-12-05T18:46:44.471Z,0
2017-12-05T18:48:06.756Z,0
2017-12-05T18:49:28.771Z,0
2017-12-05T18:50:51.241Z,0
2017-12-05T18:52:13.099Z,0
2017-12-05T18:53:35.159Z,0
2017-12-05T18:54:57.249Z,0
2017-12-05T18:56:19.320Z,0
2017-12-05T18:57:41.708Z,0
2017-12-05T18:59:03.765Z,0
2017-12-05T19:00:26.040Z,0
2017-12-05T19:01:48.053Z,0
2017-12-05T19:03:10.217Z,0
2017-12-05T19:04:32.254Z,0
2017-12-05T19:05:54.019Z,0
2017-12-05T19:07:16.047Z,0
2017-12-05T19:08:38.369Z,0
2017-12-05T19:10:00.501Z,0
2017-12-05T19:11:22.899Z,0
2017-12-05T19:12:45.220Z,0
2017-12-05T19:14:07.224Z,0
2017-12-05T19:15:29.567Z,0
2017-12-05T19:16:51.558Z,0
2017-12-05T19:18:13.557Z,0
2017-12-05T19:19:35.631Z,0
2017-12-05T19:20:57.657Z,0
2017-12-05T19:22:19.935Z,0
2017-12-05T19:23:41.933Z,0
2017-12-05T19:25:03.769Z,0
2017-12-05T19:26:25.791Z,0
2017-12-05T19:27:47.832Z,0
2017-12-05T19:29:09.991Z,0
2017-12-05T19:30:32.371Z,0
2017-12-05T19:31:54.239Z,0
2017-12-05T19:33:16.253Z,0
2017-12-05T19:34:38.548Z,0
2017-12-05T19:36:00.807Z,0
2017-12-05T19:37:22.813Z,0
2017-12-05T19:38:45.077Z,0
2017-12-05T19:40:07.150Z,0
2017-12-05T19:41:28.975Z,0
2017-12-05T19:42:50.975Z,0
2017-12-05T19:44:13.014Z,0
2017-12-05T19:45:35.046Z,0
2017-12-05T19:46:57.432Z,0
2017-12-05T19:48:19.456Z,0
2017-12-05T19:49:41.948Z,0
2017-12-05T19:51:03.744Z,0
2017-12-05T19:52:25.765Z,0